Time;durP1;ratioP1;P1;durP2;ratioP2;P2;SDS_P1;SDS_P2;PMS_P1;PMS_P2;Temp;Humidity;BMP_temperature;BMP_pressure;BME280_temperature;BME280_humidity;BME280_pressure;Samples;Min_cycle;Max_cycle;Signal;HPM_P1;HPM_P2
2023/09/27 00:03:23;;;;;;;27.05;17.27;;;;;;;16.78;70.38;101670.59;15686100;28;20045;-44
2023/09/27 00:10:58;;;;;;;21.13;15.93;;;;;;;16.73;70.49;101683.19;15685955;28;20033;-45
2023/09/27 00:18:31;;;;;;;23.45;17.02;;;;;;;16.77;70.64;101679.78;15691025;23;20045;-53
2023/09/27 00:26:05;;;;;;;20.73;17.00;;;;;;;16.65;70.40;101678.06;15557403;28;20041;-49
2023/09/27 00:33:38;;;;;;;24.27;16.90;;;;;;;16.53;70.52;101667.16;15552272;28;20041;-52
2023/09/27 00:41:12;;;;;;;20.70;16.13;;;;;;;16.72;70.19;101660.69;15555432;28;20401;-49
2023/09/27 00:48:46;;;;;;;22.33;16.70;;;;;;;16.55;70.50;101671.31;15556223;28;20046;-52
2023/09/27 00:56:23;;;;;;;21.77;16.80;;;;;;;16.35;70.42;101664.44;15536987;28;20046;-50
2023/09/27 01:03:56;;;;;;;20.27;16.33;;;;;;;16.17;70.69;101657.97;15550656;28;20418;-54
2023/09/27 01:11:31;;;;;;;24.25;16.88;;;;;;;16.04;70.63;101667.06;15554321;28;20100;-48
2023/09/27 01:19:05;;;;;;;19.67;15.95;;;;;;;15.95;70.84;101670.28;15550717;28;20046;-52
2023/09/27 01:26:40;;;;;;;20.67;15.77;;;;;;;15.89;70.26;101668.47;15553556;28;20117;-54
2023/09/27 01:34:13;;;;;;;22.73;17.45;;;;;;;15.79;70.45;101666.25;15552983;28;20042;-55
2023/09/27 01:41:50;;;;;;;19.73;15.50;;;;;;;15.60;70.85;101668.06;15552839;28;20482;-50
2023/09/27 01:49:24;;;;;;;24.80;19.42;;;;;;;15.78;70.95;101672.72;15554454;28;20046;-54
2023/09/27 01:57:00;;;;;;;32.70;23.83;;;;;;;15.58;71.75;101672.88;15528657;28;20089;-52
2023/09/27 02:04:36;;;;;;;28.13;21.00;;;;;;;15.36;71.86;101669.69;15490597;28;20133;-54
2023/09/27 02:12:10;;;;;;;31.67;22.88;;;;;;;15.48;70.98;101667.97;15490010;28;20062;-51
2023/09/27 02:19:45;;;;;;;28.08;20.70;;;;;;;15.20;71.29;101670.22;15535444;28;20042;-51
2023/09/27 02:27:23;;;;;;;29.70;21.38;;;;;;;15.25;71.19;101679.34;15550284;28;20129;-48
2023/09/27 02:34:56;;;;;;;30.63;20.75;;;;;;;15.04;71.76;101683.22;15549446;28;20045;-47
2023/09/27 02:42:33;;;;;;;34.15;21.67;;;;;;;14.98;72.15;101680.56;15549248;28;20065;-50
2023/09/27 02:50:10;;;;;;;32.63;22.27;;;;;;;15.06;71.89;101685.69;15548842;28;20406;-46
2023/09/27 02:57:50;;;;;;;58.85;25.40;;;;;;;14.83;72.93;101694.38;15535727;28;20116;-48
2023/09/27 03:05:23;;;;;;;43.13;23.88;;;;;;;14.86;72.60;101684.97;15487900;28;20077;-48
2023/09/27 03:12:58;;;;;;;75.60;24.80;;;;;;;14.10;75.69;101682.91;15486775;28;20038;-47
2023/09/27 03:20:36;;;;;;;30.52;19.35;;;;;;;14.16;73.96;101673.97;15538206;28;20446;-55
2023/09/27 03:28:12;;;;;;;29.75;17.73;;;;;;;14.21;73.76;101661.47;15546593;28;20100;-51
2023/09/27 03:35:46;;;;;;;94.82;18.17;;;;;;;14.34;73.22;101665.19;15545334;28;20483;-49
2023/09/27 03:43:20;;;;;;;58.60;18.75;;;;;;;13.50;76.83;101653.28;15546172;28;20034;-55
2023/09/27 03:50:53;;;;;;;30.42;18.90;;;;;;;13.92;76.99;101692.47;15548354;28;20066;-52
2023/09/27 03:58:28;;;;;;;24.73;18.67;;;;;;;14.20;74.98;101678.72;15529414;28;20132;-52
2023/09/27 04:06:00;;;;;;;23.27;17.33;;;;;;;14.34;73.84;101676.84;15486193;28;20487;-52
2023/09/27 04:13:35;;;;;;;20.75;16.23;;;;;;;14.30;73.35;101686.41;15485910;28;20162;-52
2023/09/27 04:21:09;;;;;;;20.10;15.43;;;;;;;14.30;73.04;101689.91;15530846;28;20100;-52
2023/09/27 04:28:44;;;;;;;21.10;15.90;;;;;;;14.29;72.43;101709.88;15545793;28;20054;-51
2023/09/27 04:36:18;;;;;;;23.48;16.45;;;;;;;14.12;73.12;101707.81;15547375;28;20034;-50
2023/09/27 04:43:52;;;;;;;21.67;16.08;;;;;;;14.10;72.64;101721.53;15557732;28;20136;-53
2023/09/27 04:51:25;;;;;;;19.85;15.25;;;;;;;14.13;72.14;101721.13;15556583;28;20045;-49
2023/09/27 04:59:03;;;;;;;20.30;15.32;;;;;;;14.06;71.85;101728.41;15533511;28;20185;-51
2023/09/27 05:06:37;;;;;;;19.35;15.00;;;;;;;13.97;72.07;101746.66;15504069;28;20042;-53
2023/09/27 05:14:17;;;;;;;20.10;13.77;;;;;;;13.91;72.31;101752.09;15535409;28;20467;-51
2023/09/27 05:21:50;;;;;;;17.13;13.63;;;;;;;14.12;71.19;101757.25;15553901;28;20049;-52
2023/09/27 05:29:24;;;;;;;16.67;13.30;;;;;;;14.47;70.30;101768.63;15553770;28;20302;-49
2023/09/27 05:36:57;;;;;;;18.88;14.10;;;;;;;14.21;70.69;101768.66;15551281;28;20137;-52
2023/09/27 05:44:34;;;;;;;17.63;13.15;;;;;;;14.16;71.62;101776.56;15533690;28;20379;-51
2023/09/27 05:52:11;;;;;;;18.08;13.40;;;;;;;14.13;72.19;101790.47;15544073;28;20113;-50
2023/09/27 05:59:47;;;;;;;14.82;13.23;;;;;;;14.24;71.74;101806.06;15493267;28;20576;-52
2023/09/27 06:07:20;;;;;;;19.65;13.90;;;;;;;14.22;72.79;101811.69;15539514;28;20034;-53
2023/09/27 06:14:55;;;;;;;16.95;13.73;;;;;;;14.48;73.59;101807.31;15549370;28;20140;-55
2023/09/27 06:22:28;;;;;;;19.80;13.73;;;;;;;14.83;72.62;101801.63;15552750;28;20046;-51
2023/09/27 06:30:04;;;;;;;;;;;;;;;15.06;73.38;101815.47;15551458;28;20037;-55
2023/09/27 06:37:37;;;;;;;19.70;13.88;;;;;;;15.40;73.42;101816.19;15550025;28;19948;-51
2023/09/27 06:45:13;;;;;;;;;;;;;;;15.77;73.96;101819.97;15551618;28;20034;-56
2023/09/27 06:52:46;;;;;;;16.35;12.15;;;;;;;16.51;71.94;101813.75;15549107;28;19932;-55
2023/09/27 07:00:24;;;;;;;23.83;14.82;;;;;;;17.29;70.48;101820.38;15515837;28;20367;-52
2023/09/27 07:07:57;;;;;;;21.25;14.90;;;;;;;18.01;68.82;101806.88;15489006;28;20035;-53
2023/09/27 07:15:33;;;;;;;30.10;14.52;;;;;;;18.18;69.29;101802.38;15488264;28;20039;-54
2023/09/27 07:23:07;;;;;;;27.58;14.88;;;;;;;18.60;67.83;101800.41;15520358;28;20064;-53
2023/09/27 07:30:42;;;;;;;20.05;14.57;;;;;;;19.44;66.58;101802.69;15549178;28;20046;-55
2023/09/27 07:38:16;;;;;;;24.15;15.88;;;;;;;19.31;67.29;101789.38;15548551;28;20050;-53
2023/09/27 07:45:54;;;;;;;18.27;14.40;;;;;;;20.13;66.55;101797.09;15549617;28;20556;-56
2023/09/27 07:53:28;;;;;;;22.10;14.38;;;;;;;20.66;65.76;101795.75;15530882;28;20046;-56
2023/09/27 08:01:08;;;;;;;21.95;15.70;;;;;;;20.85;65.22;101791.66;15506660;28;20046;-54
2023/09/27 08:08:41;;;;;;;21.40;14.77;;;;;;;21.32;64.20;101782.94;15487933;28;20077;-52
2023/09/27 08:16:18;;;;;;;17.83;14.25;;;;;;;21.96;62.60;101786.81;15494258;28;20034;-54
2023/09/27 08:23:52;;;;;;;20.45;14.00;;;;;;;22.35;61.84;101785.50;15534935;28;20100;-56
2023/09/27 08:31:27;;;;;;;16.05;11.65;;;;;;;22.56;58.26;101782.88;15558274;28;20446;-54
2023/09/27 08:39:00;;;;;;;18.50;10.48;;;;;;;23.40;56.52;101790.09;15558803;28;20056;-53
2023/09/27 08:46:37;;;;;;;13.30;8.93;;;;;;;23.87;56.70;101783.59;15558538;28;20046;-56
2023/09/27 08:54:16;;;;;;;13.82;8.40;;;;;;;24.65;51.09;101780.50;15500278;28;20078;-55
2023/09/27 09:01:53;;;;;;;11.65;9.02;;;;;;;24.79;52.48;101778.81;15498170;28;20121;-56
2023/09/27 09:09:26;;;;;;;13.02;8.88;;;;;;;25.29;50.11;101774.19;15495975;28;20046;-55
2023/09/27 09:17:01;;;;;;;11.80;8.57;;;;;;;25.76;49.43;101772.78;15495084;28;20035;-57
2023/09/27 09:24:35;;;;;;;13.07;8.13;;;;;;;25.99;48.31;101760.22;15534055;28;20042;-56
2023/09/27 09:32:29;;;;;;;12.35;7.63;;;;;;;26.80;47.62;101758.53;15541056;28;20487;-55
2023/09/27 09:40:14;;;;;;;8.13;6.88;;;;;;;26.88;46.77;101741.34;15553385;28;20038;-54
2023/09/27 09:47:48;;;;;;;11.48;6.22;;;;;;;27.19;46.59;101735.47;15551428;28;20038;-55
2023/09/27 09:55:24;;;;;;;14.00;5.53;;;;;;;27.03;44.81;101731.22;15552041;28;20101;-54
2023/09/27 10:03:02;;;;;;;8.20;4.50;;;;;;;27.75;43.05;101728.25;15497585;28;20380;-55
2023/09/27 10:10:39;;;;;;;7.95;4.60;;;;;;;27.90;43.13;101719.72;15489655;28;20169;-54
2023/09/27 10:18:37;;;;;;;8.05;4.28;;;;;;;28.50;42.81;101699.53;15489892;28;20145;-52
2023/09/27 10:26:20;;;;;;;9.75;4.28;;;;;;;28.86;40.00;101700.38;15541678;28;20092;-56
2023/09/27 10:33:56;;;;;;;9.13;4.38;;;;;;;27.95;40.71;101692.84;15549555;28;20049;-54
2023/09/27 10:41:44;;;;;;;8.00;4.03;;;;;;;28.92;40.78;101687.28;15550011;28;20056;-53
2023/09/27 10:49:21;;;;;;;6.95;3.80;;;;;;;29.94;39.03;101669.00;15549340;28;20057;-53
2023/09/27 10:56:56;;;;;;;8.30;4.13;;;;;;;29.97;37.55;101665.59;15543018;28;20042;-54
2023/09/27 11:04:33;;;;;;;10.02;3.85;;;;;;;30.46;36.78;101663.66;15488533;28;20046;-53
2023/09/27 11:12:06;;;;;;;8.88;3.90;;;;;;;29.79;37.09;101651.97;15489841;28;20121;-55
2023/09/27 11:19:41;;;;;;;6.38;3.83;;;;;;;30.64;35.75;101649.84;15489146;28;20196;-55
2023/09/27 11:27:20;;;;;;;5.20;3.38;;;;;;;29.96;37.51;101643.75;15543528;28;20104;-57
2023/09/27 11:34:59;;;;;;;7.60;3.38;;;;;;;30.39;35.98;101649.47;15530287;28;20482;-55
2023/09/27 11:42:35;;;;;;;7.22;3.17;;;;;;;30.67;35.56;101638.09;15546988;28;20034;-57
2023/09/27 11:50:09;;;;;;;7.15;3.28;;;;;;;30.80;35.27;101631.63;15557534;28;20053;-57
2023/09/27 11:57:43;;;;;;;4.22;3.33;;;;;;;31.20;34.23;101628.66;15548338;28;20093;-55
2023/09/27 12:05:18;;;;;;;8.15;3.80;;;;;;;31.60;34.00;101628.44;15499978;28;20333;-55
2023/09/27 12:12:51;;;;;;;7.57;3.70;;;;;;;31.39;35.40;101615.28;15508106;28;20061;-55
2023/09/27 12:20:30;;;;;;;13.85;4.32;;;;;;;31.06;35.18;101608.59;15581562;23;20107;-49
2023/09/27 12:28:04;;;;;;;8.98;4.50;;;;;;;30.67;36.04;101596.53;15581941;28;20073;-52
2023/09/27 12:35:39;;;;;;;9.77;4.57;;;;;;;31.48;34.46;101595.84;15616511;28;20136;-48
2023/09/27 12:43:13;;;;;;;8.55;4.25;;;;;;;31.33;35.11;101576.91;15573636;28;20453;-49
2023/09/27 12:50:49;;;;;;;11.88;4.80;;;;;;;31.13;34.68;101578.41;15606852;28;20046;-51
2023/09/27 12:58:22;;;;;;;7.93;4.55;;;;;;;31.39;34.93;101578.41;15599912;28;20045;-50
2023/09/27 13:05:57;;;;;;;9.55;4.90;;;;;;;31.17;34.55;101574.66;15617690;28;20033;-48
2023/09/27 13:13:31;;;;;;;10.90;5.18;;;;;;;31.32;35.17;101561.44;15593569;28;20061;-49
2023/09/27 13:21:10;;;;;;;9.10;4.60;;;;;;;31.64;35.19;101548.91;15575315;28;20049;-48
2023/09/27 13:28:43;;;;;;;8.98;4.88;;;;;;;31.14;35.99;101527.34;15612431;28;20530;-50
2023/09/27 13:36:22;;;;;;;15.48;5.93;;;;;;;29.80;37.60;101542.91;15617842;28;20132;-49
2023/09/27 13:43:57;;;;;;;10.25;5.47;;;;;;;29.13;38.87;101535.59;15617581;28;20485;-50
2023/09/27 13:51:34;;;;;;;12.07;5.55;;;;;;;29.27;39.58;101522.47;15619058;28;20136;-52
2023/09/27 13:59:10;;;;;;;11.02;6.22;;;;;;;28.38;41.29;101521.34;15613267;28;20096;-49
2023/09/27 14:06:46;;;;;;;9.48;6.00;;;;;;;28.55;40.68;101508.84;15601359;28;20041;-48
2023/09/27 14:14:22;;;;;;;8.50;6.03;;;;;;;27.91;41.96;101476.56;15617105;28;20045;-48
2023/09/27 14:21:59;;;;;;;13.45;6.68;;;;;;;28.11;42.70;101508.41;15614874;28;20049;-47
2023/09/27 14:29:34;;;;;;;14.40;6.50;;;;;;;28.16;42.06;101499.19;15616608;28;20076;-51
2023/09/27 14:37:09;;;;;;;10.85;6.50;;;;;;;28.27;43.16;101486.81;15598606;28;20084;-53
2023/09/27 14:44:42;;;;;;;9.75;6.40;;;;;;;27.99;43.04;101480.53;15599730;28;20041;-48
2023/09/27 14:52:16;;;;;;;13.80;7.03;;;;;;;28.06;42.78;101480.91;15616208;28;20506;-51
2023/09/27 14:59:50;;;;;;;15.95;7.30;;;;;;;28.03;43.45;101478.81;15611244;28;20549;-48
2023/09/27 15:07:28;;;;;;;11.05;7.15;;;;;;;27.82;44.02;101480.34;15617773;28;20483;-48
2023/09/27 15:15:08;;;;;;;9.43;7.10;;;;;;;27.76;44.52;101481.59;15616291;28;20041;-49
2023/09/27 15:22:42;;;;;;;14.18;7.45;;;;;;;27.14;46.06;101476.44;15609687;28;20099;-48
2023/09/27 15:30:24;;;;;;;11.15;7.43;;;;;;;27.21;45.82;101466.66;15582484;28;20421;-48
2023/09/27 15:38:06;;;;;;;14.68;8.02;;;;;;;27.03;46.80;101466.69;15615385;28;20548;-50
2023/09/27 15:45:41;;;;;;;13.98;8.43;;;;;;;27.06;47.22;101458.66;15615553;28;20037;-47
2023/09/27 15:53:16;;;;;;;16.50;8.70;;;;;;;26.94;48.65;101474.84;15580861;28;20048;-50
2023/09/27 16:00:53;;;;;;;15.35;8.02;;;;;;;26.88;48.85;101471.34;15613106;28;20037;-47
2023/09/27 16:08:28;;;;;;;15.27;8.35;;;;;;;26.75;51.19;101472.13;15615050;28;20072;-47
2023/09/27 16:16:01;;;;;;;13.70;8.30;;;;;;;26.62;51.26;101472.91;15614709;28;20029;-49
2023/09/27 16:23:36;;;;;;;18.85;8.98;;;;;;;26.34;51.47;101463.69;15559083;28;20041;-48
2023/09/27 16:31:10;;;;;;;14.82;8.52;;;;;;;26.18;51.50;101468.59;15581576;28;20058;-49
2023/09/27 16:38:44;;;;;;;15.23;9.40;;;;;;;26.00;51.85;101461.16;15580266;28;20045;-47
2023/09/27 16:46:18;;;;;;;13.88;8.88;;;;;;;25.83;52.39;101458.91;15580644;28;20046;-46
2023/09/27 16:53:52;;;;;;;12.68;9.77;;;;;;;25.52;53.50;101462.03;15591570;28;20419;-49
2023/09/27 17:01:26;;;;;;;17.15;9.75;;;;;;;25.18;54.51;101465.69;15574445;28;20050;-48
2023/09/27 17:09:04;;;;;;;20.98;10.07;;;;;;;24.83;55.59;101453.09;15576989;28;20042;-49
2023/09/27 17:16:39;;;;;;;15.95;10.30;;;;;;;24.70;54.86;101440.03;15585901;28;20136;-49
2023/09/27 17:24:15;;;;;;;17.70;11.30;;;;;;;24.75;54.66;101450.97;15570453;28;20030;-49
2023/09/27 17:31:48;;;;;;;19.13;11.48;;;;;;;24.42;55.67;101449.88;15571861;28;20145;-48
2023/09/27 17:39:23;;;;;;;19.33;11.68;;;;;;;24.03;56.96;101439.69;15590020;28;20049;-49
2023/09/27 17:46:58;;;;;;;20.63;12.00;;;;;;;23.85;57.59;101443.88;15583763;28;20529;-50
2023/09/27 17:54:39;;;;;;;17.92;12.23;;;;;;;23.69;57.32;101436.84;15562211;28;20069;-48
2023/09/27 18:02:13;;;;;;;20.42;13.48;;;;;;;23.40;57.57;101431.16;15567619;28;20465;-49
2023/09/27 18:09:49;;;;;;;20.05;12.68;;;;;;;23.04;58.82;101434.00;15585294;28;20572;-50
2023/09/27 18:17:30;;;;;;;19.45;13.00;;;;;;;23.73;56.42;101418.72;15578192;28;20041;-49
2023/09/27 18:25:06;;;;;;;18.73;12.85;;;;;;;23.74;57.16;101414.91;15636326;23;20054;-46
2023/09/27 18:32:39;;;;;;;18.38;13.00;;;;;;;23.65;56.40;101390.00;15630224;28;20056;-47
2023/09/27 18:40:18;;;;;;;21.42;13.73;;;;;;;23.56;56.55;101415.50;15623948;28;20052;-46
2023/09/27 18:47:51;;;;;;;18.35;13.93;;;;;;;23.19;57.72;101416.72;15624009;28;20466;-46
2023/09/27 18:55:25;;;;;;;20.38;14.18;;;;;;;22.63;59.30;101417.59;15606197;28;20483;-47
2023/09/27 19:03:02;;;;;;;21.13;13.98;;;;;;;22.52;59.49;101412.38;15608005;28;20078;-46
2023/09/27 19:10:40;;;;;;;19.70;13.77;;;;;;;22.35;60.01;101415.41;15613258;28;20516;-48
2023/09/27 19:18:14;;;;;;;21.88;13.77;;;;;;;22.20;60.64;101413.50;15600018;28;20077;-48
2023/09/27 19:25:48;;;;;;;20.80;14.05;;;;;;;22.01;60.43;101407.69;15612737;28;20064;-50
2023/09/27 19:33:22;;;;;;;21.17;14.65;;;;;;;21.74;61.41;101410.63;15603768;28;20099;-51
2023/09/27 19:40:57;;;;;;;21.90;14.75;;;;;;;21.54;62.29;101402.34;15621325;28;20077;-51
2023/09/27 19:48:40;;;;;;;23.63;14.90;;;;;;;21.23;62.30;101398.63;15612028;28;20073;-47
2023/09/27 19:56:18;;;;;;;23.90;15.60;;;;;;;20.99;63.20;101381.84;15609003;28;20045;-51
2023/09/27 20:03:58;;;;;;;20.35;15.43;;;;;;;21.04;62.45;101385.44;15615353;28;20061;-52
2023/09/27 20:11:32;;;;;;;19.30;13.88;;;;;;;21.21;60.99;101382.50;15623795;28;20037;-50
2023/09/27 20:19:07;;;;;;;16.52;12.95;;;;;;;21.37;59.96;101367.06;15614655;28;20116;-48
2023/09/27 20:26:42;;;;;;;22.40;13.05;;;;;;;21.39;59.20;101378.50;15601651;28;20104;-50
2023/09/27 20:34:16;;;;;;;16.80;12.45;;;;;;;21.33;59.27;101368.66;15582147;28;20137;-47
2023/09/27 20:41:50;;;;;;;15.10;12.50;;;;;;;21.27;58.81;101359.59;15617037;28;20052;-48
2023/09/27 20:49:23;;;;;;;14.93;12.20;;;;;;;21.29;58.33;101357.41;15590941;28;20056;-49
2023/09/27 20:56:57;;;;;;;19.42;12.48;;;;;;;21.27;58.47;101366.97;15607405;28;20056;-47
2023/09/27 21:04:32;;;;;;;15.98;12.32;;;;;;;20.99;58.16;101357.28;15619574;28;20046;-45
2023/09/27 21:12:07;;;;;;;16.50;12.35;;;;;;;20.67;59.04;101346.44;15609383;28;20045;-47
2023/09/27 21:19:43;;;;;;;21.35;14.50;;;;;;;20.04;60.79;101348.91;15624106;28;20665;-47
2023/09/27 21:27:17;;;;;;;19.60;13.77;;;;;;;19.71;61.88;101353.47;15590613;28;20038;-47
2023/09/27 21:34:51;;;;;;;19.55;13.15;;;;;;;19.31;63.24;101351.09;15594255;28;20041;-46
2023/09/27 21:42:27;;;;;;;18.40;13.60;;;;;;;19.12;63.71;101350.59;15604645;28;20049;-49
2023/09/27 21:50:03;;;;;;;22.90;14.18;;;;;;;18.69;65.17;101341.28;15615893;28;20045;-45
2023/09/27 21:57:38;;;;;;;18.90;13.32;;;;;;;18.71;64.46;101341.03;15604575;28;20077;-46
2023/09/27 22:05:14;;;;;;;18.50;13.82;;;;;;;18.39;65.36;101329.91;15589343;28;20099;-48
2023/09/27 22:12:53;;;;;;;17.92;13.93;;;;;;;18.27;66.00;101321.81;15601192;28;20034;-47
2023/09/27 22:20:29;;;;;;;21.35;14.93;;;;;;;18.22;66.60;101308.16;15592437;28;20054;-48
2023/09/27 22:28:16;;;;;;;24.75;14.63;;;;;;;18.49;64.83;101292.00;15609917;28;20048;-48
2023/09/27 22:35:51;;;;;;;17.15;12.57;;;;;;;18.41;65.08;101279.66;15598319;28;20048;-48
2023/09/27 22:43:26;;;;;;;18.67;11.85;;;;;;;18.34;64.39;101277.13;15609158;28;20053;-48
2023/09/27 22:51:00;;;;;;;13.65;7.68;;;;;;;18.02;64.69;101255.16;15609537;28;20042;-48
2023/09/27 22:58:35;;;;;;;9.15;4.57;;;;;;;17.97;64.69;101262.41;15606578;28;20525;-47
2023/09/27 23:06:08;;;;;;;3.85;2.03;;;;;;;18.27;63.10;101252.00;15614159;28;20049;-51
2023/09/27 23:13:57;;;;;;;2.55;1.23;;;;;;;18.08;64.21;101246.00;15622504;28;20558;-47
2023/09/27 23:21:31;;;;;;;1.05;0.75;;;;;;;17.80;64.43;101249.63;15624541;28;20053;-48
2023/09/27 23:36:54;;;;;;;6.88;3.17;;;;;;;17.24;66.38;101264.03;15603699;28;20050;-46
2023/09/27 23:44:28;;;;;;;0.30;0.30;;;;;;;17.47;65.28;101254.97;15588396;28;20121;-49
2023/09/27 23:52:04;;;;;;;1.30;0.88;;;;;;;17.13;67.08;101251.34;15597668;28;20049;-48
2023/09/27 23:59:40;;;;;;;1.17;1.08;;;;;;;17.10;66.87;101258.06;15620200;28;20096;-46
